Time;durP1;ratioP1;P1;durP2;ratioP2;P2;SDS_P1;SDS_P2;PMS_P1;PMS_P2;Temp;Humidity;BMP_temperature;BMP_pressure;BME280_temperature;BME280_humidity;BME280_pressure;Samples;Min_cycle;Max_cycle;Signal;HPM_P1;HPM_P2
2023/12/29 00:00:00;;;;;;;1.80;1.63;;;10.90;55.90;;;;;;20824;6825;117102;-80
2023/12/29 00:02:25;;;;;;;2.00;1.90;;;10.80;55.80;;;;;;20812;6825;118513;-79
2023/12/29 00:04:51;;;;;;;1.98;1.87;;;10.70;56.10;;;;;;20626;6825;288967;-79
2023/12/29 00:07:17;;;;;;;1.83;1.73;;;10.90;56.10;;;;;;20845;6825;117003;-79
2023/12/29 00:09:42;;;;;;;1.73;1.63;;;11.00;55.90;;;;;;20842;6825;118507;-79
2023/12/29 00:12:08;;;;;;;2.03;1.93;;;10.90;56.00;;;;;;20624;6825;335916;-80
2023/12/29 00:14:33;;;;;;;2.10;2.00;;;11.00;55.80;;;;;;20595;6823;351436;-80
2023/12/29 00:16:59;;;;;;;1.97;1.80;;;11.40;55.20;;;;;;20836;6824;117171;-80
2023/12/29 00:19:25;;;;;;;2.10;1.90;;;11.40;55.30;;;;;;20632;6824;277943;-79
2023/12/29 00:21:50;;;;;;;1.90;1.80;;;11.50;54.80;;;;;;20835;6824;117101;-81
2023/12/29 00:24:16;;;;;;;2.03;1.90;;;11.40;54.60;;;;;;20827;6824;117285;-80
2023/12/29 00:26:42;;;;;;;2.17;2.08;;;11.30;54.80;;;;;;20630;6824;306072;-80
2023/12/29 00:29:08;;;;;;;2.10;2.00;;;11.30;54.80;;;;;;20613;6824;314238;-79
2023/12/29 00:31:33;;;;;;;2.40;2.20;;;11.60;54.20;;;;;;20627;6824;277467;-81
2023/12/29 00:33:59;;;;;;;2.17;2.08;;;12.00;53.00;;;;;;20637;6824;305567;-78
2023/12/29 00:36:25;;;;;;;1.90;1.80;;;12.00;52.90;;;;;;20473;6825;117780;-80
2023/12/29 00:38:51;;;;;;;2.00;1.90;;;11.90;53.00;;;;;;20822;6825;118403;-81
2023/12/29 00:41:16;;;;;;;1.83;1.73;;;11.70;53.50;;;;;;20842;6825;117621;-80
2023/12/29 00:43:42;;;;;;;2.30;2.20;;;11.40;54.00;;;;;;20629;6825;320493;-81
2023/12/29 00:46:08;;;;;;;1.97;1.87;;;11.50;54.40;;;;;;20840;6825;117825;-80
2023/12/29 00:48:37;;;;;;;1.97;1.87;;;11.40;54.30;;;;;;20819;6825;117575;-79
2023/12/29 00:51:04;;;;;;;2.37;2.27;;;11.20;54.50;;;;;;20834;6825;119124;-80
2023/12/29 00:53:31;;;;;;;2.13;2.03;;;11.10;54.80;;;;;;20839;6825;119717;-79
2023/12/29 00:55:58;;;;;;;2.20;2.10;;;11.00;55.20;;;;;;20620;6825;305604;-80
2023/12/29 00:58:23;;;;;;;2.20;2.00;;;11.10;54.60;;;;;;20808;6825;116956;-80
2023/12/29 01:00:50;;;;;;;2.00;1.90;;;11.10;54.50;;;;;;20836;6825;117813;-80
2023/12/29 01:03:15;;;;;;;2.53;2.43;;;11.10;54.50;;;;;;20833;6825;117039;-81
2023/12/29 01:05:42;;;;;;;2.70;2.50;;;11.00;54.70;;;;;;20631;6825;306657;-79
2023/12/29 01:08:08;;;;;;;3.08;2.83;;;11.10;54.30;;;;;;20618;6825;338709;-79
2023/12/29 01:10:33;;;;;;;2.47;2.27;;;11.50;53.80;;;;;;20800;6825;118728;-79
2023/12/29 01:12:59;;;;;;;2.50;2.40;;;11.50;53.60;;;;;;20627;6825;307012;-80
2023/12/29 01:15:25;;;;;;;2.40;2.30;;;11.60;53.90;;;;;;20844;6825;119450;-79
2023/12/29 01:17:51;;;;;;;2.23;2.13;;;11.50;53.40;;;;;;20636;6825;277408;-79
2023/12/29 01:20:16;;;;;;;2.55;2.45;;;11.70;53.50;;;;;;20613;6825;278978;-80
2023/12/29 01:22:42;;;;;;;2.87;2.77;;;11.90;52.80;;;;;;20822;6825;117575;-80
2023/12/29 01:25:07;;;;;;;2.33;2.23;;;11.80;52.80;;;;;;20847;6825;117056;-81
2023/12/29 01:27:34;;;;;;;2.27;2.17;;;11.60;53.30;;;;;;20843;6823;118142;-79
2023/12/29 01:30:01;;;;;;;2.90;2.70;;;11.40;53.80;;;;;;20631;6824;337972;-80
2023/12/29 01:32:27;;;;;;;2.77;2.67;;;11.50;53.40;;;;;;20598;6824;278375;-81
2023/12/29 01:34:53;;;;;;;2.30;2.20;;;11.80;52.80;;;;;;20832;6824;117150;-80
2023/12/29 01:37:19;;;;;;;2.97;2.77;;;11.80;52.80;;;;;;20632;6824;296853;-81
2023/12/29 01:39:44;;;;;;;2.83;2.62;;;11.90;52.50;;;;;;20844;6824;117616;-79
2023/12/29 01:42:11;;;;;;;2.50;2.40;;;11.90;52.60;;;;;;20827;6824;116838;-80
2023/12/29 01:44:37;;;;;;;2.63;2.43;;;11.70;52.90;;;;;;20830;6824;117659;-80
2023/12/29 01:47:03;;;;;;;3.20;3.00;;;11.50;53.30;;;;;;20620;6825;277859;-79
2023/12/29 01:49:28;;;;;;;2.87;2.67;;;11.60;53.20;;;;;;20837;6825;118144;-79
2023/12/29 01:51:57;;;;;;;2.87;2.78;;;11.60;53.30;;;;;;20623;6825;300083;-79
2023/12/29 01:54:22;;;;;;;2.57;2.47;;;11.70;53.10;;;;;;20830;6825;147640;-79
2023/12/29 01:56:51;;;;;;;2.62;2.42;;;11.70;53.10;;;;;;20891;6825;116191;-79
2023/12/29 01:59:17;;;;;;;2.80;2.67;;;11.50;53.30;;;;;;20632;6825;278800;-80
2023/12/29 02:01:43;;;;;;;2.77;2.57;;;11.60;53.20;;;;;;20834;6825;117194;-80
2023/12/29 02:04:09;;;;;;;2.50;2.40;;;11.60;53.10;;;;;;20844;6825;119225;-80
2023/12/29 02:06:35;;;;;;;2.60;2.40;;;11.50;53.50;;;;;;20805;6825;118528;-79
2023/12/29 02:09:00;;;;;;;2.33;2.20;;;11.30;53.70;;;;;;20839;6825;116961;-79
2023/12/29 02:11:27;;;;;;;2.50;2.40;;;11.10;53.90;;;;;;20832;6825;117508;-81
2023/12/29 02:13:53;;;;;;;3.07;2.87;;;11.00;54.10;;;;;;20628;6825;307050;-79
2023/12/29 02:16:34;;;;;;;2.90;2.70;;;11.20;54.50;;;;;;20614;6825;306119;-80
2023/12/29 02:19:00;;;;;;;3.87;2.50;;;11.50;54.10;;;;;;20835;6825;117537;-78
2023/12/29 02:21:25;;;;;;;2.63;2.53;;;11.50;53.80;;;;;;20877;6825;116421;-79
2023/12/29 02:23:51;;;;;;;2.90;2.70;;;11.30;54.10;;;;;;20692;6825;291969;-78
2023/12/29 02:26:17;;;;;;;2.65;2.45;;;11.40;54.30;;;;;;20898;6825;117956;-79
2023/12/29 02:28:43;;;;;;;2.83;2.62;;;11.40;54.20;;;;;;20875;6825;116776;-79
2023/12/29 02:31:13;;;;;;;3.00;2.80;;;11.30;54.40;;;;;;20832;6598;304734;-79
2023/12/29 02:33:39;;;;;;;2.43;2.33;;;11.40;54.80;;;;;;20988;6795;119660;-78
2023/12/29 02:36:07;;;;;;;2.33;2.22;;;11.40;54.60;;;;;;21070;6767;116910;-79
2023/12/29 02:38:33;;;;;;;2.50;2.30;;;11.30;54.80;;;;;;21120;6751;115927;-79
2023/12/29 02:41:00;;;;;;;2.20;2.10;;;11.10;55.00;;;;;;20938;6752;117189;-79
2023/12/29 02:43:25;;;;;;;2.70;2.60;;;11.00;55.20;;;;;;20592;6837;277077;-80
2023/12/29 02:45:52;;;;;;;3.07;2.87;;;11.20;55.50;;;;;;20673;6808;307402;-80
2023/12/29 02:48:18;;;;;;;3.03;2.90;;;11.50;55.10;;;;;;20574;6837;306314;-79
2023/12/29 02:50:44;;;;;;;3.05;2.85;;;11.90;54.60;;;;;;20633;6822;308324;-80
2023/12/29 02:53:10;;;;;;;2.80;2.60;;;12.10;54.10;;;;;;20774;6836;117607;-80
2023/12/29 02:55:37;;;;;;;2.65;2.45;;;11.70;54.70;;;;;;20804;6836;116966;-79
2023/12/29 02:58:03;;;;;;;2.37;2.27;;;11.70;54.30;;;;;;20808;6837;118892;-80
2023/12/29 03:00:31;;;;;;;2.57;2.23;;;11.50;54.70;;;;;;20779;6837;118275;-79
2023/12/29 03:02:57;;;;;;;2.83;2.63;;;11.30;55.10;;;;;;20796;6837;118609;-79
2023/12/29 03:05:22;;;;;;;2.45;2.30;;;11.20;55.40;;;;;;20810;6837;117841;-79
2023/12/29 03:07:48;;;;;;;2.60;2.50;;;11.10;55.60;;;;;;20811;6837;117080;-79
2023/12/29 03:10:14;;;;;;;2.70;2.50;;;10.90;55.90;;;;;;20786;6837;118712;-79
2023/12/29 03:12:44;;;;;;;3.00;2.70;;;11.10;56.60;;;;;;20592;6837;288995;-80
2023/12/29 03:15:09;;;;;;;2.60;2.40;;;11.10;56.60;;;;;;20802;6837;118485;-79
2023/12/29 03:17:35;;;;;;;3.40;3.20;;;11.20;56.20;;;;;;20600;6837;291607;-80
2023/12/29 03:20:01;;;;;;;3.20;3.00;;;11.60;55.80;;;;;;20586;6837;336231;-80
2023/12/29 03:22:27;;;;;;;2.47;2.37;;;11.70;55.90;;;;;;20781;6837;117391;-79
2023/12/29 03:24:52;;;;;;;2.43;2.33;;;11.60;55.40;;;;;;20808;6837;117243;-80
2023/12/29 03:27:18;;;;;;;2.47;2.37;;;11.20;55.90;;;;;;20801;6837;120176;-80
2023/12/29 03:29:44;;;;;;;2.90;2.70;;;11.10;55.80;;;;;;20594;6837;279224;-80
2023/12/29 03:32:10;;;;;;;2.80;2.60;;;11.30;56.40;;;;;;20802;6837;117294;-79
2023/12/29 03:34:36;;;;;;;2.58;1.98;;;11.00;56.50;;;;;;20774;6837;117844;-80
2023/12/29 03:37:02;;;;;;;2.57;2.47;;;11.10;56.30;;;;;;20808;6837;117771;-80
2023/12/29 03:39:27;;;;;;;3.10;2.80;;;10.90;56.50;;;;;;20595;6837;277571;-79
2023/12/29 03:41:53;;;;;;;2.40;2.30;;;11.00;57.00;;;;;;20804;6837;117492;-79
2023/12/29 03:44:18;;;;;;;2.22;2.12;;;11.00;56.70;;;;;;20788;6837;118294;-80
2023/12/29 03:46:44;;;;;;;2.50;2.40;;;10.90;56.80;;;;;;20593;6837;317289;-80
2023/12/29 03:49:09;;;;;;;2.70;2.50;;;11.10;57.30;;;;;;20583;6835;277671;-79
2023/12/29 03:51:36;;;;;;;2.80;2.70;;;11.70;56.20;;;;;;20589;6836;307966;-79
2023/12/29 03:54:01;;;;;;;3.00;2.80;;;11.70;56.20;;;;;;20594;6836;308414;-80
2023/12/29 03:56:27;;;;;;;2.47;1.98;;;11.90;55.80;;;;;;20784;6836;118734;-80
2023/12/29 03:58:52;;;;;;;2.30;2.20;;;11.80;55.50;;;;;;20808;6836;117280;-79
2023/12/29 04:01:19;;;;;;;7.30;2.22;;;11.50;55.90;;;;;;20805;6836;117637;-81
2023/12/29 04:03:44;;;;;;;3.00;2.00;;;11.30;56.30;;;;;;20798;6836;117952;-80
2023/12/29 04:06:09;;;;;;;2.50;2.30;;;11.10;56.50;;;;;;20581;6836;307482;-81
2023/12/29 04:08:37;;;;;;;2.10;2.00;;;11.20;56.90;;;;;;20766;6836;117790;-80
2023/12/29 04:11:03;;;;;;;2.22;2.12;;;11.20;56.60;;;;;;20573;6837;307458;-80
2023/12/29 04:13:29;;;;;;;2.20;2.10;;;11.40;56.90;;;;;;20787;6837;117068;-80
2023/12/29 04:15:57;;;;;;;2.10;2.00;;;11.30;56.50;;;;;;20802;6837;118859;-80
2023/12/29 04:18:22;;;;;;;1.87;1.77;;;11.20;56.70;;;;;;20786;6837;117149;-80
2023/12/29 04:20:48;;;;;;;1.80;1.80;;;11.00;56.90;;;;;;20798;6837;118824;-79
2023/12/29 04:23:14;;;;;;;2.57;2.37;;;10.90;57.20;;;;;;20568;6837;307540;-79
2023/12/29 04:25:40;;;;;;;2.42;2.33;;;11.10;57.30;;;;;;20807;6837;118142;-79
2023/12/29 04:28:08;;;;;;;2.30;2.10;;;11.10;57.30;;;;;;20806;6837;118469;-80
2023/12/29 04:30:34;;;;;;;2.33;2.17;;;11.00;57.30;;;;;;20786;6837;117725;-80
2023/12/29 04:33:01;;;;;;;2.50;2.40;;;11.00;57.90;;;;;;20591;6837;278020;-80
2023/12/29 04:35:27;;;;;;;2.40;2.30;;;11.00;57.90;;;;;;20600;6837;278612;-79
2023/12/29 04:37:53;;;;;;;2.50;2.40;;;11.60;57.80;;;;;;20597;6837;308305;-79
2023/12/29 04:40:19;;;;;;;2.50;2.30;;;11.60;57.10;;;;;;20782;6837;118910;-80
2023/12/29 04:42:44;;;;;;;2.03;1.92;;;11.50;57.40;;;;;;20799;6837;117822;-79
2023/12/29 04:45:12;;;;;;;2.50;2.40;;;11.30;57.50;;;;;;20602;6837;278060;-79
2023/12/29 04:47:38;;;;;;;2.73;2.50;;;11.30;57.40;;;;;;20804;6837;117213;-79
2023/12/29 04:50:08;;;;;;;2.70;2.50;;;11.30;57.20;;;;;;20584;6837;307557;-79
2023/12/29 04:52:34;;;;;;;2.40;2.30;;;11.40;57.40;;;;;;20567;6837;308129;-79
2023/12/29 04:55:02;;;;;;;2.73;2.50;;;11.60;57.00;;;;;;20597;6837;309384;-80
2023/12/29 04:57:27;;;;;;;2.40;2.30;;;11.70;56.60;;;;;;20572;6837;277197;-80
2023/12/29 04:59:53;;;;;;;2.33;2.20;;;11.80;56.40;;;;;;20805;6837;117611;-80
2023/12/29 05:02:19;;;;;;;2.28;2.03;;;11.70;56.50;;;;;;20790;6835;118287;-80
2023/12/29 05:04:45;;;;;;;2.33;2.22;;;11.10;57.40;;;;;;20802;6836;67745;-79
2023/12/29 05:07:10;;;;;;;2.50;2.40;;;11.10;57.40;;;;;;20808;6836;117488;-79
2023/12/29 05:09:36;;;;;;;2.42;2.15;;;10.90;57.80;;;;;;20798;6836;117522;-80
2023/12/29 05:12:02;;;;;;;2.60;1.92;;;10.70;57.90;;;;;;20808;6836;118253;-79
2023/12/29 05:14:28;;;;;;;2.03;1.92;;;10.50;58.30;;;;;;20787;6836;127342;-79
2023/12/29 05:16:54;;;;;;;2.60;2.50;;;10.50;58.30;;;;;;20594;6836;309896;-79
2023/12/29 05:19:21;;;;;;;2.70;2.50;;;10.70;58.90;;;;;;20588;6837;307016;-80
2023/12/29 05:21:47;;;;;;;2.10;2.00;;;11.00;58.50;;;;;;20801;6837;119068;-79
2023/12/29 05:24:12;;;;;;;2.50;2.30;;;11.00;58.10;;;;;;20590;6837;277513;-79
2023/12/29 05:26:37;;;;;;;2.47;2.37;;;11.00;58.20;;;;;;20575;6837;336509;-79
2023/12/29 05:29:03;;;;;;;2.40;2.28;;;11.30;57.80;;;;;;20804;6837;117639;-79
2023/12/29 05:31:28;;;;;;;2.60;2.40;;;11.20;57.50;;;;;;20598;6837;316355;-79
2023/12/29 05:33:55;;;;;;;1.85;1.85;;;11.20;57.90;;;;;;20813;6837;117519;-80
2023/12/29 05:36:20;;;;;;;2.47;2.28;;;11.10;57.70;;;;;;20784;6837;118385;-78
2023/12/29 05:38:47;;;;;;;2.60;2.40;;;10.90;58.00;;;;;;20613;6837;277513;-77
2023/12/29 05:41:12;;;;;;;2.10;1.87;;;10.90;58.40;;;;;;20817;6837;71558;-77
2023/12/29 05:43:38;;;;;;;2.43;2.33;;;10.80;58.20;;;;;;20565;6837;278371;-78
2023/12/29 05:46:03;;;;;;;2.40;2.30;;;10.90;58.60;;;;;;20610;6837;309060;-78
2023/12/29 05:48:29;;;;;;;2.47;2.37;;;11.20;58.30;;;;;;20592;6837;299192;-78
2023/12/29 05:50:55;;;;;;;2.73;2.63;;;11.40;57.70;;;;;;20606;6837;277649;-77
2023/12/29 05:53:21;;;;;;;2.40;2.20;;;11.60;57.30;;;;;;20818;6837;67315;-77
2023/12/29 05:55:46;;;;;;;2.77;2.57;;;11.50;57.20;;;;;;20608;6837;286340;-77
2023/12/29 05:58:12;;;;;;;2.53;2.43;;;11.50;57.60;;;;;;20603;6837;277176;-80
2023/12/29 06:00:39;;;;;;;2.80;2.60;;;11.60;57.40;;;;;;20592;6837;310285;-78
2023/12/29 06:03:06;;;;;;;2.53;2.35;;;11.80;57.10;;;;;;20804;6837;68628;-79
2023/12/29 06:05:29;;;;;;;2.60;2.40;;;11.60;56.90;;;;;;20579;6837;308020;-78
2023/12/29 06:07:55;;;;;;;2.43;2.33;;;11.60;57.20;;;;;;20607;6837;308328;-78
2023/12/29 06:10:21;;;;;;;2.13;1.87;;;11.80;57.10;;;;;;20816;6837;68292;-78
2023/12/29 06:12:47;;;;;;;2.50;2.30;;;11.60;56.90;;;;;;20598;6835;339090;-77
2023/12/29 06:15:16;;;;;;;2.30;2.20;;;11.50;57.10;;;;;;20820;6836;67625;-77
2023/12/29 06:17:40;;;;;;;2.33;2.23;;;11.50;57.00;;;;;;20591;6836;306291;-78
2023/12/29 06:20:06;;;;;;;2.60;2.50;;;11.60;57.30;;;;;;20610;6836;308994;-80
2023/12/29 06:22:31;;;;;;;2.17;2.00;;;11.80;57.10;;;;;;20814;6836;68041;-79
2023/12/29 06:24:56;;;;;;;2.30;2.10;;;11.70;56.90;;;;;;20826;6837;67498;-79
2023/12/29 06:27:22;;;;;;;2.03;1.92;;;11.40;57.20;;;;;;20825;6837;67734;-79
2023/12/29 06:29:49;;;;;;;2.30;2.20;;;11.20;57.60;;;;;;20598;6837;307108;-78
2023/12/29 06:32:14;;;;;;;2.20;2.10;;;11.30;58.10;;;;;;20609;6837;309782;-78
2023/12/29 06:34:40;;;;;;;2.30;2.20;;;11.50;57.70;;;;;;20610;6837;309863;-78
2023/12/29 06:37:05;;;;;;;2.37;2.20;;;11.80;57.30;;;;;;20604;6837;306684;-78
2023/12/29 06:39:31;;;;;;;2.10;1.92;;;12.00;56.90;;;;;;20815;6837;68043;-79
2023/12/29 06:41:58;;;;;;;2.35;1.83;;;11.80;56.60;;;;;;20799;6837;69053;-79
2023/12/29 06:44:25;;;;;;;1.80;1.70;;;11.50;56.90;;;;;;20820;6837;67790;-80
2023/12/29 06:46:50;;;;;;;2.30;2.20;;;11.20;57.20;;;;;;20610;6837;309902;-79
2023/12/29 06:49:16;;;;;;;2.10;2.00;;;11.20;57.90;;;;;;20822;6837;73975;-80
2023/12/29 06:51:41;;;;;;;2.05;1.95;;;11.20;57.80;;;;;;20813;6837;67957;-79
2023/12/29 06:54:08;;;;;;;2.20;2.10;;;10.80;59.10;;;;;;20827;6837;67829;-79
2023/12/29 06:56:34;;;;;;;2.50;2.40;;;10.80;58.40;;;;;;20609;6837;279045;-79
2023/12/29 06:59:00;;;;;;;2.37;2.27;;;10.90;59.30;;;;;;20604;6837;345620;-79
2023/12/29 07:01:30;;;;;;;2.30;2.20;;;11.20;59.40;;;;;;20822;6837;66905;-78
2023/12/29 07:03:55;;;;;;;2.10;2.00;;;11.20;58.90;;;;;;20816;6837;67852;-79
2023/12/29 07:06:21;;;;;;;1.97;1.83;;;11.00;59.10;;;;;;20822;6837;68684;-79
2023/12/29 07:08:46;;;;;;;2.43;2.27;;;10.80;59.50;;;;;;20608;6837;280183;-80
2023/12/29 07:11:13;;;;;;;2.30;2.20;;;11.30;60.20;;;;;;20612;6837;292617;-78
2023/12/29 07:13:39;;;;;;;2.30;2.10;;;11.20;60.30;;;;;;20823;6837;67731;-79
2023/12/29 07:16:05;;;;;;;1.90;1.80;;;11.20;59.70;;;;;;20615;6837;288851;-79
2023/12/29 07:18:31;;;;;;;1.63;1.63;;;11.30;59.80;;;;;;20819;6837;72532;-79
2023/12/29 07:20:57;;;;;;;2.13;2.03;;;11.30;59.40;;;;;;20812;6837;68219;-80
2023/12/29 07:23:23;;;;;;;1.80;1.70;;;11.10;59.40;;;;;;20826;6837;71390;-80
2023/12/29 07:25:49;;;;;;;2.30;2.20;;;10.90;59.70;;;;;;20615;6835;307155;-79
2023/12/29 07:28:16;;;;;;;2.07;1.90;;;11.00;60.20;;;;;;20825;6836;67343;-79
2023/12/29 07:30:42;;;;;;;2.50;2.30;;;11.00;59.90;;;;;;20609;6836;307090;-80
2023/12/29 07:33:09;;;;;;;2.30;2.20;;;11.20;60.00;;;;;;20610;6836;306789;-79
2023/12/29 07:35:36;;;;;;;2.10;2.00;;;11.40;59.40;;;;;;20607;6837;338612;-80
2023/12/29 07:38:02;;;;;;;2.10;2.00;;;11.80;58.10;;;;;;20604;6837;328793;-79
2023/12/29 07:40:28;;;;;;;1.87;1.77;;;11.80;58.10;;;;;;20812;6837;68133;-79
2023/12/29 07:42:53;;;;;;;2.20;2.10;;;11.70;58.00;;;;;;20607;6837;277535;-80
2023/12/29 07:45:19;;;;;;;2.40;2.20;;;11.70;58.10;;;;;;20611;6837;308474;-80
2023/12/29 07:47:45;;;;;;;2.10;2.00;;;12.00;58.00;;;;;;20617;6837;306919;-78
2023/12/29 07:50:12;;;;;;;2.20;2.10;;;12.00;57.30;;;;;;20592;6837;289709;-79
2023/12/29 07:52:39;;;;;;;4.30;4.00;;;12.20;57.00;;;;;;20582;6837;308159;-80
2023/12/29 07:55:05;;;;;;;4.72;4.32;;;12.20;56.50;;;;;;20603;6837;307800;-80
2023/12/29 07:57:30;;;;;;;5.20;4.70;;;12.40;56.30;;;;;;20820;6837;67786;-80
2023/12/29 07:59:56;;;;;;;3.35;3.15;;;12.20;56.30;;;;;;20811;6837;67859;-79
2023/12/29 08:02:21;;;;;;;2.80;2.70;;;11.90;56.80;;;;;;20597;6837;306349;-80
2023/12/29 08:04:49;;;;;;;2.50;2.40;;;11.90;57.00;;;;;;20596;6837;279957;-79
2023/12/29 08:07:14;;;;;;;3.67;3.47;;;12.10;57.30;;;;;;20593;6837;289695;-80
2023/12/29 08:09:40;;;;;;;3.40;3.20;;;12.30;56.20;;;;;;20808;6837;71614;-80
2023/12/29 08:12:06;;;;;;;3.70;3.50;;;12.20;56.10;;;;;;20599;6837;308127;-80
2023/12/29 08:14:32;;;;;;;2.87;2.67;;;12.30;56.40;;;;;;20809;6837;68755;-79
2023/12/29 08:16:58;;;;;;;3.73;3.53;;;12.30;57.20;;;;;;20812;6837;68606;-80
2023/12/29 08:19:24;;;;;;;4.20;3.93;;;12.10;56.80;;;;;;20810;6837;68346;-81
2023/12/29 08:21:49;;;;;;;4.87;4.60;;;12.00;57.20;;;;;;20597;6837;280022;-79
2023/12/29 08:24:16;;;;;;;5.87;5.47;;;12.10;57.20;;;;;;20600;6837;306517;-79
2023/12/29 08:26:45;;;;;;;6.18;5.78;;;12.50;56.70;;;;;;20608;6837;337458;-79
2023/12/29 08:29:10;;;;;;;7.97;7.40;;;12.70;55.80;;;;;;20590;6837;277409;-79
2023/12/29 08:31:36;;;;;;;4.10;3.87;;;12.90;55.20;;;;;;20592;6837;308144;-78
2023/12/29 08:34:01;;;;;;;5.37;4.97;;;13.00;55.00;;;;;;20564;6837;306993;-80
2023/12/29 08:36:33;;;;;;;3.30;3.10;;;13.10;54.70;;;;;;20808;6835;67339;-79
2023/12/29 08:38:56;;;;;;;6.20;5.90;;;13.00;54.60;;;;;;20567;6836;307542;-80
2023/12/29 08:41:24;;;;;;;3.77;3.47;;;12.90;55.30;;;;;;20594;6836;278101;-82
2023/12/29 08:43:49;;;;;;;3.93;3.73;;;13.00;55.10;;;;;;20605;6836;306968;-78
2023/12/29 08:46:15;;;;;;;6.62;6.05;;;13.20;55.10;;;;;;20607;6836;304023;-77
2023/12/29 08:48:41;;;;;;;5.00;4.70;;;13.20;54.80;;;;;;20591;6837;280504;-76
2023/12/29 08:51:06;;;;;;;3.30;3.10;;;13.30;54.50;;;;;;20600;6837;337691;-78
2023/12/29 08:53:35;;;;;;;2.83;2.73;;;13.40;54.50;;;;;;20610;6837;307139;-80
2023/12/29 08:55:58;;;;;;;2.67;2.58;;;13.40;54.40;;;;;;20818;6837;68022;-78
2023/12/29 08:58:23;;;;;;;3.60;3.30;;;13.20;54.40;;;;;;20687;6837;71945;-78
2023/12/29 09:00:49;;;;;;;3.65;3.35;;;12.90;55.00;;;;;;20550;6837;307397;-81
2023/12/29 09:03:14;;;;;;;3.70;3.47;;;12.90;55.60;;;;;;20604;6837;307322;-78
2023/12/29 09:05:42;;;;;;;4.27;3.97;;;13.10;55.40;;;;;;20602;6837;279656;-80
2023/12/29 09:08:07;;;;;;;4.43;4.20;;;13.30;55.10;;;;;;20603;6837;305179;-80
2023/12/29 09:10:33;;;;;;;5.63;5.13;;;13.70;54.90;;;;;;20592;6837;307489;-79
2023/12/29 09:12:59;;;;;;;7.90;7.30;;;13.70;54.60;;;;;;20602;6837;306847;-79
2023/12/29 09:15:25;;;;;;;3.70;3.37;;;13.80;54.20;;;;;;20823;6837;67617;-79
2023/12/29 09:17:51;;;;;;;7.72;7.22;;;13.60;54.00;;;;;;20611;6837;277687;-78
2023/12/29 09:20:16;;;;;;;5.00;4.60;;;13.60;54.10;;;;;;20813;6837;67760;-79
2023/12/29 09:22:42;;;;;;;4.47;4.17;;;13.40;54.20;;;;;;20826;6837;67726;-80
2023/12/29 09:25:08;;;;;;;4.60;4.30;;;13.20;54.60;;;;;;20819;6837;67797;-78
2023/12/29 09:27:35;;;;;;;4.20;3.90;;;12.70;55.20;;;;;;20822;6837;68258;-79
2023/12/29 09:30:03;;;;;;;2.33;2.22;;;12.80;55.30;;;;;;20603;6837;277920;-78
2023/12/29 09:32:30;;;;;;;2.93;2.63;;;12.80;55.30;;;;;;20815;6837;68271;-78
2023/12/29 09:34:56;;;;;;;1.80;1.70;;;12.90;55.20;;;;;;20813;6837;67342;-78
2023/12/29 09:37:23;;;;;;;4.00;3.70;;;12.60;55.60;;;;;;20825;6837;67598;-80
2023/12/29 09:39:49;;;;;;;4.60;4.30;;;12.50;55.50;;;;;;20608;6837;306227;-80
2023/12/29 09:42:15;;;;;;;2.33;2.23;;;12.70;55.60;;;;;;20612;6837;282106;-80
2023/12/29 09:44:40;;;;;;;5.87;5.47;;;13.00;55.20;;;;;;20586;6837;307819;-79
2023/12/29 09:47:07;;;;;;;5.13;4.73;;;13.30;54.60;;;;;;20606;6835;323005;-80
2023/12/29 09:49:36;;;;;;;3.40;3.20;;;13.50;54.20;;;;;;20810;6836;67269;-81
2023/12/29 09:52:02;;;;;;;10.23;8.67;;;13.40;54.10;;;;;;20797;6836;68526;-79
2023/12/29 09:54:28;;;;;;;7.85;7.12;;;13.00;55.40;;;;;;20825;6836;67979;-77
2023/12/29 09:56:54;;;;;;;5.30;4.87;;;13.00;54.70;;;;;;20820;6836;67977;-79
2023/12/29 09:59:21;;;;;;;1.50;1.40;;;12.80;55.00;;;;;;20822;6837;68193;-78
2023/12/29 10:01:46;;;;;;;1.43;1.43;;;12.70;55.20;;;;;;20832;6837;68264;-79
2023/12/29 10:04:12;;;;;;;4.53;4.32;;;12.60;55.30;;;;;;20836;6837;67770;-80
2023/12/29 10:06:37;;;;;;;3.50;3.30;;;12.50;55.40;;;;;;20621;6837;277685;-79
2023/12/29 10:09:17;;;;;;;3.83;3.55;;;12.70;55.20;;;;;;20614;6837;296145;-79
2023/12/29 10:11:28;;;;;;;4.80;4.60;;;13.00;54.60;;;;;;20859;6734;117996;-74
2023/12/29 10:14:05;;;;;;;4.37;4.17;;;13.30;54.10;;;;;;20750;6734;289994;-76
2023/12/29 10:16:43;;;;;;;4.37;4.07;;;13.30;54.10;;;;;;20856;6751;121332;-75
2023/12/29 10:19:39;;;;;;;6.25;5.75;;;13.30;54.10;;;;;;20639;6755;299273;-74
2023/12/29 10:22:21;;;;;;;2.77;2.60;;;13.40;54.00;;;;;;20739;6725;307800;-77
2023/12/29 10:24:56;;;;;;;4.33;3.93;;;13.60;53.30;;;;;;20775;6725;275299;-75
2023/12/29 10:27:33;;;;;;;2.80;2.70;;;13.80;52.40;;;;;;20998;6718;116672;-74
2023/12/29 10:30:08;;;;;;;2.90;2.77;;;13.70;52.50;;;;;;20913;6718;116773;-75
2023/12/29 10:32:43;;;;;;;2.07;1.97;;;13.40;53.20;;;;;;21001;6713;117327;-74
2023/12/29 10:35:19;;;;;;;1.92;1.83;;;13.10;53.70;;;;;;20774;6736;308727;-76
2023/12/29 10:37:55;;;;;;;2.67;2.57;;;13.30;54.00;;;;;;20707;6737;305614;-76
2023/12/29 10:40:31;;;;;;;2.40;2.30;;;13.60;53.60;;;;;;20731;6821;117458;-74
2023/12/29 10:43:08;;;;;;;3.92;3.72;;;13.80;53.60;;;;;;20753;6720;275761;-75
2023/12/29 10:45:41;;;;;;;2.33;2.23;;;13.90;53.40;;;;;;20919;6736;116846;-74
2023/12/29 10:48:20;;;;;;;2.30;2.20;;;14.00;53.40;;;;;;20974;6721;116691;-75
2023/12/29 10:50:56;;;;;;;2.20;2.10;;;14.00;53.50;;;;;;20700;6709;277578;-77
2023/12/29 10:53:32;;;;;;;1.67;1.58;;;14.10;52.50;;;;;;20850;6707;276723;-75
2023/12/29 10:56:20;;;;;;;4.67;4.27;;;14.40;51.30;;;;;;20769;6724;277495;-77
2023/12/29 10:58:57;;;;;;;3.10;2.90;;;14.80;50.60;;;;;;20766;6721;278033;-76
2023/12/29 11:01:32;;;;;;;3.20;2.90;;;14.80;50.20;;;;;;20773;6798;67957;-78
2023/12/29 11:04:09;;;;;;;1.85;1.75;;;14.70;50.60;;;;;;20710;6742;275791;-78
2023/12/29 11:06:47;;;;;;;1.07;1.07;;;14.60;50.70;;;;;;20994;6717;116706;-76
2023/12/29 11:09:31;;;;;;;1.07;0.93;;;14.60;50.70;;;;;;20986;6721;115908;-79
2023/12/29 11:12:07;;;;;;;1.03;1.03;;;14.40;50.90;;;;;;20933;6740;117781;-77
2023/12/29 11:14:46;;;;;;;1.20;1.20;;;14.20;51.20;;;;;;20917;6735;69508;-76
2023/12/29 11:17:19;;;;;;;0.90;0.90;;;13.90;51.30;;;;;;20909;6740;117255;-75
2023/12/29 11:19:55;;;;;;;0.90;0.90;;;13.60;51.80;;;;;;20734;6735;116853;-75
2023/12/29 11:22:31;;;;;;;1.10;1.00;;;13.60;51.80;;;;;;20923;6747;117196;-73
2023/12/29 11:25:07;;;;;;;1.10;1.02;;;13.50;52.00;;;;;;20747;6744;276093;-78
2023/12/29 11:27:42;;;;;;;1.13;1.13;;;13.60;50.90;;;;;;20749;6746;305980;-77
2023/12/29 11:30:18;;;;;;;1.13;1.13;;;13.90;50.30;;;;;;20598;6759;307865;-78
2023/12/29 11:32:57;;;;;;;1.10;1.00;;;14.10;50.10;;;;;;20879;6762;117394;-78
2023/12/29 11:35:44;;;;;;;1.10;1.10;;;14.00;50.00;;;;;;20734;6736;306221;-75
2023/12/29 11:38:22;;;;;;;1.33;1.20;;;14.10;50.00;;;;;;20950;6738;119981;-75
2023/12/29 11:41:13;;;;;;;1.30;1.30;;;13.90;50.10;;;;;;20606;6723;307605;-76
2023/12/29 11:43:55;;;;;;;1.05;1.05;;;13.90;50.10;;;;;;20704;6747;305585;-76
2023/12/29 11:46:45;;;;;;;1.30;1.10;;;14.20;49.90;;;;;;20800;6728;305725;-80
2023/12/29 11:49:21;;;;;;;1.03;1.03;;;14.30;49.30;;;;;;20727;6718;306170;-80
2023/12/29 11:51:57;;;;;;;0.90;0.90;;;14.50;48.90;;;;;;20963;6732;116841;-75
2023/12/29 11:54:33;;;;;;;1.10;1.00;;;14.30;49.20;;;;;;20956;6728;116767;-74
2023/12/29 11:57:08;;;;;;;1.10;1.10;;;14.00;49.90;;;;;;20757;6729;332034;-76
2023/12/29 11:59:48;;;;;;;1.20;1.20;;;14.20;49.90;;;;;;20700;6728;277061;-76
2023/12/29 12:02:26;;;;;;;1.20;1.10;;;14.20;49.90;;;;;;20689;6743;311284;-75
2023/12/29 12:05:02;;;;;;;1.07;1.07;;;14.50;49.40;;;;;;20907;6748;116882;-76
2023/12/29 12:07:40;;;;;;;1.10;1.10;;;14.40;49.70;;;;;;20912;6748;116930;-77
2023/12/29 12:10:20;;;;;;;1.40;1.30;;;14.30;50.40;;;;;;20639;6733;306197;-77
2023/12/29 12:12:56;;;;;;;1.40;1.40;;;14.50;50.90;;;;;;20674;6758;305392;-72
2023/12/29 12:15:31;;;;;;;1.33;1.23;;;14.80;50.60;;;;;;20659;6746;278338;-75
2023/12/29 12:18:09;;;;;;;1.37;1.27;;;15.40;49.40;;;;;;20730;6743;309354;-76
2023/12/29 12:20:45;;;;;;;1.20;1.20;;;15.30;49.50;;;;;;20797;6748;116081;-77
2023/12/29 12:23:21;;;;;;;1.53;1.30;;;15.30;49.50;;;;;;20699;6749;307860;-80
2023/12/29 12:25:56;;;;;;;1.00;1.00;;;15.30;49.50;;;;;;20914;6753;116819;-75
2023/12/29 12:28:32;;;;;;;1.20;1.10;;;15.20;49.40;;;;;;20673;6735;292648;-74
2023/12/29 12:31:09;;;;;;;1.93;0.97;;;15.20;49.40;;;;;;20723;6765;117152;-76
2023/12/29 12:33:44;;;;;;;1.15;1.10;;;15.10;49.60;;;;;;20673;6746;316301;-76
2023/12/29 12:36:20;;;;;;;1.15;1.10;;;15.10;49.20;;;;;;20713;6742;307173;-77
2023/12/29 12:38:56;;;;;;;8.67;1.93;;;15.30;48.70;;;;;;20942;6736;117773;-75
2023/12/29 12:41:32;;;;;;;1.15;0.90;;;15.10;48.10;;;;;;20449;6822;280441;-77